Time;durP1;ratioP1;P1;durP2;ratioP2;P2;SDS_P1;SDS_P2;PMS_P1;PMS_P2;Temp;Humidity;BMP_temperature;BMP_pressure;BME280_temperature;BME280_humidity;BME280_pressure;Samples;Min_cycle;Max_cycle;Signal;HPM_P1;HPM_P2
2022/04/14 00:00:58;;;;;;;;;;;;;;;4.24;91.59;99752.84;6341784;22;20322;-89
2022/04/14 00:03:24;;;;;;;;;;;;;;;4.24;91.39;99753.69;6369750;22;19975;-88
2022/04/14 00:05:49;;;;;;;;;;;;;;;4.25;91.33;99755.44;6316031;22;19910;-89
2022/04/14 00:08:14;;;;;;;;;;;;;;;4.25;91.31;99759.84;6369598;22;19936;-88
2022/04/14 00:10:39;;;;;;;;;;;;;;;4.25;91.01;99758.06;6369753;22;19989;-88
2022/04/14 00:13:05;;;;;;;;;;;;;;;4.22;90.92;99759.88;6340767;22;19911;-89
2022/04/14 00:15:30;;;;;;;;;;;;;;;4.22;90.82;99760.75;6369762;22;20435;-86
2022/04/14 00:17:55;;;;;;;;;;;;;;;4.23;90.75;99756.34;6341807;22;19910;-87
2022/04/14 00:20:21;;;;;;;;;;;;;;;4.23;90.68;99762.50;6342200;22;19990;-89
2022/04/14 00:22:46;;;;;;;;;;;;;;;4.24;90.64;99763.34;6341603;22;20408;-88
2022/04/14 00:25:11;;;;;;;;;;;;;;;4.26;90.87;99762.44;6369327;22;19918;-87
2022/04/14 00:27:37;;;;;;;;;;;;;;;4.24;90.80;99756.31;6340515;22;20232;-87
2022/04/14 00:30:03;;;;;;;;;;;;;;;4.24;91.10;99760.72;6369493;22;19921;-88
2022/04/14 00:32:28;;;;;;;;;;;;;;;4.25;91.31;99754.59;6369725;22;19919;-90
2022/04/14 00:34:53;;;;;;;;;;;;;;;4.25;91.36;99760.69;6369747;22;19971;-88
2022/04/14 00:37:19;;;;;;;;;;;;;;;4.23;91.20;99761.59;6369388;22;19922;-90
2022/04/14 00:39:44;;;;;;;;;;;;;;;4.26;91.17;99762.44;6369311;22;19910;-86
2022/04/14 00:42:10;;;;;;;;;;;;;;;4.25;91.09;99759.84;6367822;22;19914;-88
2022/04/14 00:44:35;;;;;;;;;;;;;;;4.25;91.08;99767.72;6341669;22;19996;-88
2022/04/14 00:47:01;;;;;;;;;;;;;;;4.23;91.11;99762.50;6369463;22;20013;-89
2022/04/14 00:49:26;;;;;;;;;;;;;;;4.22;90.84;99763.38;6369445;22;19910;-89
2022/04/14 00:51:51;;;;;;;;;;;;;;;4.36;91.75;99768.38;6341594;22;19918;-86
2022/04/14 00:54:17;;;;;;;;;;;;;;;4.51;93.30;99769.84;6341540;22;20013;-89
2022/04/14 02:24:42;;;;;;;;;;;;;;;6.92;100.00;99809.97;6211686;23;20358;-85
2022/04/14 02:27:08;;;;;;;;;;;;;;;6.94;100.00;99812.56;6216227;23;19923;-84
2022/04/14 02:29:33;;;;;;;;;;;;;;;6.95;100.00;99816.94;6239705;23;19958;-83
2022/04/14 02:31:58;;;;;;;;;;;;;;;6.97;100.00;99818.59;6216369;23;20339;-83
2022/04/14 02:34:25;;;;;;;;;;;;;;;7.00;100.00;99813.25;6260048;22;20240;-83
2022/04/14 02:36:50;;;;;;;;;;;;;;;7.01;100.00;99819.41;6238295;23;19918;-83
2022/04/14 02:39:16;;;;;;;;;;;;;;;7.02;100.00;99815.84;6215938;23;19986;-82
2022/04/14 02:41:41;;;;;;;;;;;;;;;7.04;100.00;99808.78;6215749;23;19970;-83
2022/04/14 02:44:06;;;;;;;;;;;;;;;7.04;100.00;99814.91;6265275;22;19943;-85
2022/04/14 02:46:31;;;;;;;;;;;;;;;7.07;100.00;99809.56;6239424;23;19915;-84
2022/04/14 02:48:56;;;;;;;;;;;;;;;7.07;100.00;99812.19;6239758;23;19987;-84
2022/04/14 02:51:22;;;;;;;;;;;;;;;7.08;100.00;99811.28;6216060;23;20334;-87
2022/04/14 02:53:47;;;;;;;;;;;;;;;7.09;100.00;99813.00;6214259;23;20240;-87
2022/04/14 02:56:12;;;;;;;;;;;;;;;7.12;100.00;99816.47;6239322;23;19915;-87
2022/04/14 02:58:37;;;;;;;;;;;;;;;7.41;100.00;99811.22;6214733;23;19965;-89
2022/04/14 03:01:03;;;;;;;;;;;;;;;7.51;100.00;99819.72;6260122;22;20328;-82
2022/04/14 03:03:28;;;;;;;;;;;;;;;7.48;100.00;99816.31;6215725;23;20231;-88
2022/04/14 03:05:54;;;;;;;;;;;;;;;7.46;100.00;99811.94;6264888;22;20236;-82
2022/04/14 03:08:19;;;;;;;;;;;;;;;7.45;100.00;99804.06;6214078;23;19995;-86
2022/04/14 03:10:44;;;;;;;;;;;;;;;7.43;100.00;99812.03;6239368;22;19930;-82
2022/04/14 03:13:09;;;;;;;;;;;;;;;7.42;100.00;99809.47;6239317;23;19912;-82
2022/04/14 03:15:35;;;;;;;;;;;;;;;7.41;100.00;99807.72;6215559;23;20328;-83
2022/04/14 03:18:00;;;;;;;;;;;;;;;7.40;100.00;99813.88;6215902;23;19912;-81
2022/04/14 03:20:25;;;;;;;;;;;;;;;7.40;100.00;99809.50;6215856;23;19995;-81
2022/04/14 03:22:50;;;;;;;;;;;;;;;7.40;100.00;99817.41;6214438;22;19912;-82
2022/04/14 03:25:16;;;;;;;;;;;;;;;7.40;100.00;99809.50;6215122;23;20374;-81
2022/04/14 03:27:41;;;;;;;;;;;;;;;7.41;100.00;99823.53;6215426;23;20395;-86
2022/04/14 03:30:07;;;;;;;;;;;;;;;7.43;100.00;99819.06;6259749;22;20235;-82
2022/04/14 03:32:32;;;;;;;;;;;;;;;7.45;100.00;99827.78;6215375;23;20248;-82
2022/04/14 07:29:51;;;;;;;;;;;;;;;4.38;93.45;99963.34;6232724;23;20008;-81
2022/04/14 07:32:16;;;;;;;;;;;;;;;4.35;93.29;99969.50;6245155;23;19916;-81
2022/04/14 07:34:42;;;;;;;;;;;;;;;4.38;93.46;99976.47;6245372;23;19948;-82
2022/04/14 07:37:07;;;;;;;;;;;;;;;4.31;93.25;99975.72;6246071;23;19912;-81
2022/04/14 07:39:32;;;;;;;;;;;;;;;4.33;93.16;99970.44;6245678;23;19908;-84
2022/04/14 07:41:58;;;;;;;;;;;;;;;4.34;93.29;99977.41;6245268;23;19912;-85
2022/04/14 07:44:23;;;;;;;;;;;;;;;4.34;93.35;99980.03;6243858;23;20293;-87
2022/04/14 07:46:48;;;;;;;;;;;;;;;4.35;93.32;99976.53;6218440;23;19907;-83
2022/04/14 07:49:13;;;;;;;;;;;;;;;4.35;93.13;99981.78;6245529;23;19928;-82
2022/04/14 07:51:40;;;;;;;;;;;;;;;4.32;93.14;99980.06;6245601;23;20320;-84
2022/04/14 07:54:06;;;;;;;;;;;;;;;4.36;93.02;99979.13;6218400;23;20350;-83
2022/04/14 07:56:31;;;;;;;;;;;;;;;4.33;93.01;99984.41;6245712;23;19911;-85
2022/04/14 07:58:56;;;;;;;;;;;;;;;4.34;92.94;99990.50;6216961;23;19908;-83
2022/04/14 08:01:21;;;;;;;;;;;;;;;4.33;93.02;99994.91;6218512;23;19916;-86
2022/04/14 08:03:47;;;;;;;;;;;;;;;4.31;93.08;99996.69;6245326;23;19907;-88
2022/04/14 08:06:15;;;;;;;;;;;;;;;4.33;93.05;99994.91;6211897;23;19930;-83
2022/04/14 08:08:41;;;;;;;;;;;;;;;4.31;92.94;100001.09;6212746;23;19958;-89
2022/04/14 08:11:07;;;;;;;;;;;;;;;4.32;93.06;100002.78;6218837;23;20235;-84
2022/04/14 08:13:36;;;;;;;;;;;;;;;4.32;93.09;99997.53;6243998;23;20001;-88
2022/04/14 08:16:05;;;;;;;;;;;;;;;4.30;93.09;100001.97;6245690;23;19911;-90
2022/04/14 08:18:31;;;;;;;;;;;;;;;4.31;92.91;100003.72;6245169;23;20381;-85
2022/04/14 08:20:58;;;;;;;;;;;;;;;4.31;92.88;100015.06;6245609;23;19912;-87
2022/04/14 08:23:25;;;;;;;;;;;;;;;4.31;92.84;100014.19;6218538;23;19915;-90
2022/04/14 08:25:50;;;;;;;;;;;;;;;4.28;92.82;100014.25;6245300;23;19947;-87
2022/04/14 08:28:16;;;;;;;;;;;;;;;4.28;92.88;100011.63;6217176;23;20324;-89
2022/04/14 08:30:41;;;;;;;;;;;;;;;4.30;92.82;100021.19;6225755;23;19915;-85
2022/04/14 08:33:07;;;;;;;;;;;;;;;4.27;92.74;100010.72;6243928;23;19970;-83
2022/04/14 08:35:33;;;;;;;;;;;;;;;4.29;92.76;100011.59;6245407;22;20399;-84
2022/04/14 08:38:01;;;;;;;;;;;;;;;4.30;92.68;100009.81;6245594;22;19939;-86
2022/04/14 08:40:28;;;;;;;;;;;;;;;4.28;92.79;100015.09;6243762;23;19947;-86
2022/04/14 08:43:04;;;;;;;;;;;;;;;4.28;92.73;100009.00;6243586;22;19915;-87
2022/04/14 08:45:31;;;;;;;;;;;;;;;4.30;92.74;100017.69;6243352;23;20279;-83
2022/04/14 08:47:58;;;;;;;;;;;;;;;4.27;92.59;100007.25;6245333;22;19926;-88
2022/04/14 08:50:24;;;;;;;;;;;;;;;4.30;92.73;100010.69;6243764;23;19912;-83
2022/04/14 08:52:50;;;;;;;;;;;;;;;4.28;92.73;100014.25;6245110;22;20242;-84
2022/04/14 08:55:16;;;;;;;;;;;;;;;4.26;92.80;100018.63;6243525;23;19926;-84
2022/04/14 08:57:42;;;;;;;;;;;;;;;4.25;92.84;100017.75;6243613;22;19994;-84
2022/04/14 09:00:09;;;;;;;;;;;;;;;4.24;92.67;100013.38;6233118;23;19911;-90
2022/04/14 09:02:34;;;;;;;;;;;;;;;4.28;92.77;100015.09;6232879;23;19956;-91
2022/04/14 09:05:00;;;;;;;;;;;;;;;4.24;92.81;100009.91;6244891;22;20335;-83
2022/04/14 09:07:26;;;;;;;;;;;;;;;4.26;92.76;100014.25;6243142;23;19915;-89
2022/04/14 09:09:51;;;;;;;;;;;;;;;4.25;93.02;100012.50;6242940;23;19995;-85
2022/04/14 09:12:18;;;;;;;;;;;;;;;4.26;93.36;100016.00;6243788;23;20240;-93
2022/04/14 09:14:43;;;;;;;;;;;;;;;4.24;92.98;100010.75;6245129;22;20300;-85
2022/04/14 09:17:09;;;;;;;;;;;;;;;4.25;92.84;100015.13;6244632;23;19939;-89
2022/04/14 09:19:34;;;;;;;;;;;;;;;4.23;92.82;100016.03;6244009;23;20384;-93
2022/04/14 09:22:03;;;;;;;;;;;;;;;4.23;92.66;100019.53;6244292;23;19922;-85
2022/04/14 09:24:42;;;;;;;;;;;;;;;4.23;92.51;100008.16;6244313;23;19923;-91
2022/04/14 09:27:08;;;;;;;;;;;;;;;4.18;92.66;100011.72;6242810;23;19919;-94
2022/04/14 09:29:33;;;;;;;;;;;;;;;4.22;92.75;100016.94;6243548;22;19983;-89
2022/04/14 09:31:59;;;;;;;;;;;;;;;4.19;92.56;100016.06;6218570;23;19985;-90
2022/04/14 09:34:51;;;;;;;;;;;;;;;4.21;92.51;100015.19;6218531;23;20316;-84
2022/04/14 09:37:16;;;;;;;;;;;;;;;4.22;92.49;100019.56;6214313;23;20294;-90
2022/04/14 09:39:57;;;;;;;;;;;;;;;4.21;92.51;100015.19;6215755;23;19912;-89
2022/04/14 09:42:23;;;;;;;;;;;;;;;4.21;92.50;100016.06;6215850;23;19970;-92
2022/04/14 09:44:51;;;;;;;;;;;;;;;4.21;92.52;100015.19;6218250;23;19911;-91
2022/04/14 09:47:24;;;;;;;;;;;;;;;4.19;92.50;100013.44;6245137;23;20272;-92
2022/04/14 09:49:50;;;;;;;;;;;;;;;4.21;92.65;100015.19;6218230;23;19916;-91
2022/04/14 09:52:15;;;;;;;;;;;;;;;4.19;92.39;100012.59;6244874;23;19995;-89
2022/04/14 09:54:40;;;;;;;;;;;;;;;4.22;92.67;100016.94;6244653;23;19961;-92
2022/04/14 09:57:09;;;;;;;;;;;;;;;4.18;92.61;100013.50;6218196;23;19927;-91
2022/04/14 09:59:37;;;;;;;;;;;;;;;4.23;92.76;100011.69;6218784;23;19922;-89
2022/04/14 10:02:18;;;;;;;;;;;;;;;4.19;92.47;100007.34;6219645;23;20263;-89
2022/04/14 10:04:45;;;;;;;;;;;;;;;4.18;92.39;100013.50;6220100;23;19922;-91
2022/04/14 10:07:11;;;;;;;;;;;;;;;4.19;92.56;100017.84;6220291;23;19912;-92
2022/04/14 10:09:39;;;;;;;;;;;;;;;4.21;92.55;100023.91;6221376;23;19920;-91
2022/04/14 10:12:05;;;;;;;;;;;;;;;4.22;92.73;100016.94;6224462;23;19947;-94
2022/04/14 10:14:30;;;;;;;;;;;;;;;4.17;92.57;100019.63;6245624;23;19919;-93
2022/04/14 10:16:59;;;;;;;;;;;;;;;4.18;92.47;100022.22;6221024;23;19998;-93
2022/04/14 10:19:25;;;;;;;;;;;;;;;4.16;92.53;100023.13;6220383;23;19996;-85
2022/04/14 10:21:50;;;;;;;;;;;;;;;4.18;92.45;100019.59;6244074;23;19939;-88
2022/04/14 10:24:17;;;;;;;;;;;;;;;4.17;92.44;100028.34;6244864;23;20393;-86
2022/04/14 10:26:43;;;;;;;;;;;;;;;4.13;92.45;100021.41;6245262;23;19911;-86
2022/04/14 10:29:12;;;;;;;;;;;;;;;4.16;92.66;100020.50;6244213;23;19911;-88
2022/04/14 10:31:37;;;;;;;;;;;;;;;4.19;92.93;100023.09;6215342;23;19920;-85
2022/04/14 10:34:04;;;;;;;;;;;;;;;4.20;93.06;100022.22;6214374;23;19919;-86
2022/04/14 10:36:40;;;;;;;;;;;;;;;4.23;92.95;100019.53;6187837;23;20353;-89
2022/04/14 10:39:06;;;;;;;;;;;;;;;4.38;94.88;100023.69;6214341;23;19912;-87
2022/04/14 10:41:33;;;;;;;;;;;;;;;4.39;96.12;100020.22;6187294;23;19919;-85
2022/04/14 10:44:02;;;;;;;;;;;;;;;4.38;97.17;100015.84;6187279;23;20267;-84
2022/04/14 10:46:38;;;;;;;;;;;;;;;4.36;97.58;100020.25;6187863;23;20288;-85
2022/04/14 10:49:11;;;;;;;;;;;;;;;4.37;97.81;100011.47;6213424;23;19908;-84
2022/04/14 10:51:37;;;;;;;;;;;;;;;4.36;98.02;100015.00;6215409;23;19924;-86
2022/04/14 10:54:06;;;;;;;;;;;;;;;4.34;98.03;99999.28;6215058;23;19912;-86
2022/04/14 10:56:34;;;;;;;;;;;;;;;4.34;98.21;99999.28;6215288;23;19919;-85
2022/04/14 10:59:11;;;;;;;;;;;;;;;4.35;98.11;100010.63;6212180;23;19912;-86
2022/04/14 11:01:45;;;;;;;;;;;;;;;4.30;97.95;100002.81;6212959;23;19974;-89
2022/04/14 11:04:29;;;;;;;;;;;;;;;4.35;98.22;100008.00;6215067;23;19986;-84
2022/04/14 11:07:01;;;;;;;;;;;;;;;4.33;98.04;99994.91;6215921;23;19991;-88
2022/04/14 11:09:39;;;;;;;;;;;;;;;4.31;97.82;99998.47;6188950;23;19920;-86
2022/04/14 11:12:08;;;;;;;;;;;;;;;4.33;97.77;100004.53;6215487;23;20016;-88
2022/04/14 11:14:34;;;;;;;;;;;;;;;4.31;97.31;99999.31;6213948;23;19912;-88
2022/04/14 11:17:00;;;;;;;;;;;;;;;4.30;97.25;99999.34;6189083;23;19965;-87
2022/04/14 11:19:26;;;;;;;;;;;;;;;4.29;97.14;99998.47;6215212;23;19908;-88
2022/04/14 11:22:08;;;;;;;;;;;;;;;4.29;96.87;99997.59;6189445;23;19963;-82
2022/04/14 11:24:33;;;;;;;;;;;;;;;4.31;96.79;99993.22;6188373;23;19978;-86
2022/04/14 11:27:09;;;;;;;;;;;;;;;4.30;96.62;99994.09;6215441;23;20311;-85
2022/04/14 11:29:34;;;;;;;;;;;;;;;4.30;96.64;99997.56;6192168;23;20231;-86
2022/04/14 11:32:00;;;;;;;;;;;;;;;4.34;96.48;99996.66;6245470;22;19916;-85
2022/04/14 11:34:34;;;;;;;;;;;;;;;4.36;96.72;99996.63;6243309;23;19923;-87
2022/04/14 11:37:01;;;;;;;;;;;;;;;4.31;96.38;100001.09;6244121;23;20350;-83
2022/04/14 11:39:27;;;;;;;;;;;;;;;4.28;96.20;99994.09;6243443;23;19916;-86
2022/04/14 11:41:53;;;;;;;;;;;;;;;4.28;95.95;100001.13;6236790;23;20244;-83
2022/04/14 11:44:19;;;;;;;;;;;;;;;4.27;95.85;99987.13;6241880;23;19911;-83
2022/04/14 11:46:49;;;;;;;;;;;;;;;4.27;96.01;99992.38;6243663;23;19968;-88
2022/04/14 11:49:25;;;;;;;;;;;;;;;4.26;95.94;99995.91;6242589;23;19958;-82
2022/04/14 11:51:52;;;;;;;;;;;;;;;4.27;96.09;99992.38;6245536;22;19916;-88
2022/04/14 11:54:21;;;;;;;;;;;;;;;4.30;96.01;99986.22;6243729;23;19994;-83
2022/04/14 11:56:50;;;;;;;;;;;;;;;4.29;96.00;99987.09;6244021;23;20247;-84
2022/04/14 11:59:19;;;;;;;;;;;;;;;4.27;95.89;99989.75;6241808;23;19914;-88
2022/04/14 12:01:50;;;;;;;;;;;;;;;4.24;95.65;99989.78;6243923;23;19918;-83
2022/04/14 12:04:16;;;;;;;;;;;;;;;4.26;95.54;99984.50;6243834;23;20319;-90
2022/04/14 12:06:51;;;;;;;;;;;;;;;4.24;95.29;99984.53;6244056;23;19985;-87
2022/04/14 12:09:21;;;;;;;;;;;;;;;4.23;95.10;99982.81;6243074;23;19915;-84
2022/04/14 12:11:47;;;;;;;;;;;;;;;4.26;95.19;99981.88;6244037;23;19923;-84
2022/04/14 12:14:13;;;;;;;;;;;;;;;4.22;94.90;99969.72;6241506;23;19911;-84
2022/04/14 12:16:48;;;;;;;;;;;;;;;4.26;94.79;99977.53;6244904;22;19919;-89
2022/04/14 12:19:13;;;;;;;;;;;;;;;4.19;94.65;99971.47;6244977;22;20288;-88
2022/04/14 12:21:39;;;;;;;;;;;;;;;4.19;94.56;99971.47;6237090;23;19919;-84
2022/04/14 12:24:04;;;;;;;;;;;;;;;4.18;94.45;99969.75;6243836;23;20355;-83
2022/04/14 12:26:30;;;;;;;;;;;;;;;4.22;94.47;99967.09;6243583;23;20239;-84
2022/04/14 12:28:55;;;;;;;;;;;;;;;4.18;94.35;99972.38;6243734;22;19921;-86
2022/04/14 12:31:20;;;;;;;;;;;;;;;4.18;94.19;99961.91;6243451;23;19950;-90
2022/04/14 12:33:59;;;;;;;;;;;;;;;4.21;94.22;99973.22;6245173;22;19920;-90
2022/04/14 12:36:34;;;;;;;;;;;;;;;4.18;94.17;99964.53;6243564;23;19993;-87
2022/04/14 12:39:02;;;;;;;;;;;;;;;4.17;93.99;99968.03;6236708;23;19912;-86
2022/04/14 12:41:32;;;;;;;;;;;;;;;4.18;94.06;99967.13;6243467;23;19911;-90
2022/04/14 12:43:58;;;;;;;;;;;;;;;4.17;93.73;99962.78;6241917;23;19911;-92
2022/04/14 12:46:27;;;;;;;;;;;;;;;4.16;93.79;99961.06;6243563;23;19998;-91
2022/04/14 12:49:04;;;;;;;;;;;;;;;4.20;94.08;99956.63;6243048;23;19974;-87
2022/04/14 12:51:40;;;;;;;;;;;;;;;4.60;96.83;99948.16;6243447;23;20270;-87
2022/04/14 12:54:07;;;;;;;;;;;;;;;5.08;100.00;99942.09;6236414;23;20112;-90
2022/04/14 12:56:34;;;;;;;;;;;;;;;5.36;100.00;99936.34;6236338;23;19915;-84
2022/04/14 12:59:10;;;;;;;;;;;;;;;5.59;100.00;99933.28;6243552;22;20373;-91
2022/04/14 13:01:53;;;;;;;;;;;;;;;5.74;100.00;99934.72;6236484;23;19915;-86
2022/04/14 13:04:19;;;;;;;;;;;;;;;5.84;100.00;99938.91;6242560;23;19915;-90
2022/04/14 13:07:03;;;;;;;;;;;;;;;5.91;100.00;99932.59;6242274;23;20022;-85
2022/04/14 13:09:29;;;;;;;;;;;;;;;5.99;100.00;99933.31;6244942;23;19922;-86
2022/04/14 13:11:54;;;;;;;;;;;;;;;6.06;100.00;99934.03;6243525;23;19911;-85
2022/04/14 13:14:27;;;;;;;;;;;;;;;6.14;100.00;99937.41;6235167;23;19912;-86
2022/04/14 13:16:53;;;;;;;;;;;;;;;6.19;100.00;99937.31;6245028;22;19970;-88
2022/04/14 13:19:19;;;;;;;;;;;;;;;6.26;100.00;99945.91;6243339;23;19922;-84
2022/04/14 13:21:45;;;;;;;;;;;;;;;6.30;100.00;99947.56;6243661;22;19911;-85
2022/04/14 13:24:10;;;;;;;;;;;;;;;6.34;100.00;99950.09;6242602;23;20239;-84
2022/04/14 13:26:35;;;;;;;;;;;;;;;6.40;100.00;99950.84;6243196;23;19919;-89
2022/04/14 13:29:01;;;;;;;;;;;;;;;6.41;100.00;99944.69;6234914;23;19980;-84
2022/04/14 13:31:26;;;;;;;;;;;;;;;6.46;100.00;99945.44;6245759;23;20340;-92
2022/04/14 13:33:52;;;;;;;;;;;;;;;6.48;100.00;99947.16;6220121;23;19986;-89
2022/04/14 13:36:17;;;;;;;;;;;;;;;6.52;100.00;99951.41;6247208;23;20320;-84
2022/04/14 13:38:42;;;;;;;;;;;;;;;6.56;100.00;99946.97;6240287;23;19911;-87
2022/04/14 13:41:07;;;;;;;;;;;;;;;6.59;100.00;99938.09;6220322;23;19943;-90
2022/04/14 13:43:33;;;;;;;;;;;;;;;6.62;100.00;99948.56;6212056;23;19938;-92
2022/04/14 13:45:58;;;;;;;;;;;;;;;6.63;100.00;99938.00;6219923;23;19916;-87
2022/04/14 13:48:23;;;;;;;;;;;;;;;6.65;100.00;99937.97;6213537;23;19911;-85
2022/04/14 13:50:49;;;;;;;;;;;;;;;6.68;100.00;99937.91;6239336;23;19916;-92
2022/04/14 13:53:14;;;;;;;;;;;;;;;6.72;100.00;99934.28;6240231;23;19957;-85
2022/04/14 13:55:42;;;;;;;;;;;;;;;6.76;100.00;99935.06;6247013;23;19973;-91
2022/04/14 13:58:07;;;;;;;;;;;;;;;6.81;100.00;99933.19;6212447;23;19912;-90
2022/04/14 14:00:33;;;;;;;;;;;;;;;6.82;100.00;99940.19;6220324;23;19912;-84
2022/04/14 14:02:58;;;;;;;;;;;;;;;6.84;100.00;99933.13;6213805;23;19912;-90
2022/04/14 14:05:23;;;;;;;;;;;;;;;6.86;100.00;99937.44;6213315;23;19976;-90
2022/04/14 14:07:49;;;;;;;;;;;;;;;6.89;100.00;99936.50;6220321;23;19920;-84
2022/04/14 14:10:14;;;;;;;;;;;;;;;6.91;100.00;99942.59;6240120;23;19912;-90
2022/04/14 14:12:40;;;;;;;;;;;;;;;6.91;100.00;99945.25;6218583;23;19916;-88
2022/04/14 14:15:06;;;;;;;;;;;;;;;6.96;100.00;99942.50;6246583;23;19966;-84
2022/04/14 14:17:31;;;;;;;;;;;;;;;6.98;100.00;99946.81;6219618;23;19973;-86
2022/04/14 14:19:56;;;;;;;;;;;;;;;6.99;100.00;99945.91;6239475;23;19912;-84
2022/04/14 14:22:22;;;;;;;;;;;;;;;7.01;100.00;99952.00;6239355;23;20018;-88
2022/04/14 14:24:47;;;;;;;;;;;;;;;7.02;100.00;99951.09;6219714;23;19947;-86
2022/04/14 14:27:14;;;;;;;;;;;;;;;6.98;100.00;99945.94;6212929;23;20231;-84
2022/04/14 14:29:39;;;;;;;;;;;;;;;6.07;100.00;99950.72;6212383;23;19969;-85
2022/04/14 14:32:04;;;;;;;;;;;;;;;5.73;100.00;99949.63;6238606;23;20278;-85
2022/04/14 14:34:30;;;;;;;;;;;;;;;5.63;100.00;99956.84;6246701;23;19919;-88
2022/04/14 14:36:55;;;;;;;;;;;;;;;5.56;100.00;99959.63;6245343;23;19918;-90
2022/04/14 14:39:22;;;;;;;;;;;;;;;5.46;100.00;99953.66;6238213;23;20255;-90
2022/04/14 14:41:48;;;;;;;;;;;;;;;5.40;100.00;99959.03;6244706;23;20339;-91
2022/04/14 14:44:14;;;;;;;;;;;;;;;5.36;100.00;99957.34;6243441;23;19916;-85
2022/04/14 14:46:39;;;;;;;;;;;;;;;5.31;100.00;99960.06;6245166;23;19918;-91
2022/04/14 14:49:04;;;;;;;;;;;;;;;5.26;100.00;99957.56;6245135;23;19919;-90
2022/04/14 14:51:29;;;;;;;;;;;;;;;5.25;100.00;99960.19;6243610;23;20281;-87
2022/04/14 14:53:55;;;;;;;;;;;;;;;5.19;100.00;99958.53;6245045;23;19911;-93
2022/04/14 14:56:20;;;;;;;;;;;;;;;5.16;100.00;99955.97;6246684;23;20327;-88
2022/04/14 15:01:29;;;;;;;;;;;;;;;5.12;100.00;99954.28;6246830;23;19977;-90
2022/04/14 15:03:54;;;;;;;;;;;;;;;5.09;100.00;99959.63;6243156;23;19912;-88
2022/04/14 15:06:22;;;;;;;;;;;;;;;5.07;100.00;99964.00;6244343;23;19916;-91
2022/04/14 15:08:49;;;;;;;;;;;;;;;5.02;100.00;99956.19;6245023;23;19913;-89
2022/04/14 15:11:15;;;;;;;;;;;;;;;5.02;100.00;99964.06;6245163;23;19947;-85
2022/04/14 15:13:40;;;;;;;;;;;;;;;5.02;100.00;99961.44;6243468;23;19919;-89
2022/04/14 15:16:05;;;;;;;;;;;;;;;4.98;100.00;99962.41;6245115;23;19915;-92
2022/04/14 15:18:30;;;;;;;;;;;;;;;4.99;100.00;99958.03;6243893;23;19985;-87
2022/04/14 15:20:56;;;;;;;;;;;;;;;4.95;100.00;99961.59;6237663;23;19973;-85
2022/04/14 15:23:21;;;;;;;;;;;;;;;4.94;100.00;99962.50;6246009;23;20240;-94
2022/04/14 15:25:47;;;;;;;;;;;;;;;4.91;100.00;99955.53;6246612;22;19919;-91
2022/04/14 15:28:12;;;;;;;;;;;;;;;4.88;100.00;99953.84;6242022;23;19916;-93
2022/04/14 15:30:37;;;;;;;;;;;;;;;4.87;100.00;99952.09;6235902;23;19983;-90
2022/04/14 15:33:03;;;;;;;;;;;;;;;4.86;100.00;99955.59;6244789;23;20248;-92
2022/04/14 15:35:29;;;;;;;;;;;;;;;4.85;100.00;99960.88;6235889;23;19955;-92
2022/04/14 15:37:54;;;;;;;;;;;;;;;4.81;100.00;99965.31;6238018;23;19919;-92
2022/04/14 15:40:20;;;;;;;;;;;;;;;4.80;100.00;99957.47;6242398;23;20290;-85
2022/04/14 15:42:45;;;;;;;;;;;;;;;4.76;100.00;99964.53;6242363;23;20314;-83
2022/04/14 15:45:10;;;;;;;;;;;;;;;4.73;99.87;99965.44;6244425;23;19958;-94
2022/04/14 15:47:36;;;;;;;;;;;;;;;4.72;99.46;99968.09;6243655;23;20679;-85
2022/04/14 15:50:02;;;;;;;;;;;;;;;4.70;99.05;99968.09;6243297;23;19911;-84
2022/04/14 15:52:27;;;;;;;;;;;;;;;4.71;98.50;99963.75;6244223;23;19912;-88
2022/04/14 15:54:54;;;;;;;;;;;;;;;4.67;98.07;99973.41;6245251;23;19922;-93
2022/04/14 15:57:19;;;;;;;;;;;;;;;4.64;97.62;99967.34;6237324;23;19919;-91
2022/04/14 15:59:45;;;;;;;;;;;;;;;4.61;97.32;99973.53;6243612;22;19915;-92
2022/04/14 16:02:13;;;;;;;;;;;;;;;4.61;97.20;99972.63;6237466;23;19934;-91
2022/04/14 16:04:38;;;;;;;;;;;;;;;4.61;96.80;99970.00;6244358;23;19915;-92
2022/04/14 16:07:03;;;;;;;;;;;;;;;5.31;98.31;99967.09;6246238;23;19958;-88
2022/04/14 16:12:02;;;;;;;;;;;;;;;5.07;99.58;99971.88;6243622;23;19919;-86
2022/04/14 16:12:13;;;;;;;;;;;;;;;4.82;98.88;99972.31;6244652;23;20324;-84
2022/04/14 16:14:40;;;;;;;;;;;;;;;4.74;97.99;99974.19;6240418;23;19918;-83
2022/04/14 16:17:05;;;;;;;;;;;;;;;4.69;97.25;99974.28;6245945;22;19943;-84
2022/04/14 16:19:32;;;;;;;;;;;;;;;4.63;96.79;99966.47;6243839;22;19919;-88
2022/04/14 16:21:58;;;;;;;;;;;;;;;4.62;96.33;99972.63;6241104;23;19977;-88
2022/04/14 16:24:26;;;;;;;;;;;;;;;4.59;95.89;99969.19;6243977;22;19915;-88
2022/04/14 16:26:51;;;;;;;;;;;;;;;4.56;95.78;99975.34;6243333;23;19919;-86
2022/04/14 16:29:17;;;;;;;;;;;;;;;4.55;95.53;99965.75;6242004;23;19983;-88
2022/04/14 16:31:42;;;;;;;;;;;;;;;4.55;95.37;99968.38;6243714;23;19911;-89
2022/04/14 16:34:10;;;;;;;;;;;;;;;4.51;94.94;99966.66;6243932;23;20354;-87
2022/04/14 16:36:35;;;;;;;;;;;;;;;4.51;95.01;99971.91;6217627;23;19993;-84
2022/04/14 16:39:00;;;;;;;;;;;;;;;4.49;95.01;99969.31;6244420;23;19916;-84
2022/04/14 16:41:26;;;;;;;;;;;;;;;4.51;94.84;99971.91;6245497;23;19947;-84
2022/04/14 16:43:51;;;;;;;;;;;;;;;4.46;94.85;99984.25;6216531;23;20477;-88
2022/04/14 16:46:16;;;;;;;;;;;;;;;4.46;94.75;99986.88;6244382;23;19911;-89
2022/04/14 16:48:42;;;;;;;;;;;;;;;4.47;94.80;99984.22;6210824;23;19985;-89
2022/04/14 16:51:11;;;;;;;;;;;;;;;6.40;100.00;99993.84;6237170;23;19918;-84
2022/04/14 16:53:37;;;;;;;;;;;;;;;5.74;100.00;99988.16;6217651;23;19923;-87
2022/04/14 16:56:02;;;;;;;;;;;;;;;5.19;100.00;99987.44;6216167;23;19919;-86
2022/04/14 16:58:28;;;;;;;;;;;;;;;4.97;100.00;99996.59;6208288;23;19912;-88
2022/04/14 17:00:53;;;;;;;;;;;;;;;4.87;99.30;99998.50;6215996;23;20323;-87
2022/04/14 17:03:20;;;;;;;;;;;;;;;4.80;98.27;99995.06;6217606;23;19911;-87
2022/04/14 17:05:45;;;;;;;;;;;;;;;4.73;97.49;99993.47;6216286;23;20228;-85
2022/04/14 17:08:10;;;;;;;;;;;;;;;4.67;96.99;100004.03;6217668;23;19919;-87
2022/04/14 17:10:36;;;;;;;;;;;;;;;4.64;96.53;99996.22;6215738;23;19926;-86
2022/04/14 17:13:05;;;;;;;;;;;;;;;4.61;96.14;99988.38;6215226;23;19995;-84
2022/04/14 17:15:30;;;;;;;;;;;;;;;4.59;95.96;99995.41;6216256;23;20279;-84
2022/04/14 17:17:56;;;;;;;;;;;;;;;4.58;95.75;99993.69;6216138;23;19915;-84
2022/04/14 17:20:21;;;;;;;;;;;;;;;4.55;95.54;99992.84;6217101;23;19911;-85
2022/04/14 17:25:32;;;;;;;;;;;;;;;4.55;95.29;99992.84;6166613;23;19911;-86
2022/04/14 17:27:57;;;;;;;;;;;;;;;4.54;95.12;99998.97;6241879;23;19918;-85
2022/04/14 17:30:23;;;;;;;;;;;;;;;4.54;95.15;100006.00;6243670;23;19915;-86
2022/04/14 17:32:49;;;;;;;;;;;;;;;4.48;95.09;100004.34;6217127;23;19915;-88
2022/04/14 17:35:14;;;;;;;;;;;;;;;4.50;94.97;100005.16;6242676;23;19970;-84
2022/04/14 17:37:40;;;;;;;;;;;;;;;4.47;95.00;99996.50;6243813;23;19911;-86
2022/04/14 17:40:05;;;;;;;;;;;;;;;4.47;95.09;100005.22;6217073;23;19908;-84
2022/04/14 17:42:31;;;;;;;;;;;;;;;4.47;95.11;100007.84;6242572;23;19912;-84
2022/04/14 17:44:56;;;;;;;;;;;;;;;4.46;95.03;100005.25;6216590;23;19926;-85
2022/04/14 17:47:21;;;;;;;;;;;;;;;4.43;94.86;100010.53;6215616;23;19907;-87
2022/04/14 17:49:46;;;;;;;;;;;;;;;4.42;94.78;100006.16;6244159;23;19990;-86
2022/04/14 17:52:12;;;;;;;;;;;;;;;4.43;94.79;100006.13;6215049;23;19912;-84
2022/04/14 17:54:37;;;;;;;;;;;;;;;4.41;94.76;100018.41;6243709;23;19915;-85
2022/04/14 17:57:02;;;;;;;;;;;;;;;4.39;94.75;100012.34;6215822;23;19919;-84
2022/04/14 17:59:28;;;;;;;;;;;;;;;4.40;94.63;100023.69;6215365;23;19939;-85
2022/04/14 18:01:53;;;;;;;;;;;;;;;4.41;94.65;100021.03;6243750;23;19916;-85
2022/04/14 18:04:18;;;;;;;;;;;;;;;4.40;94.57;100027.16;6217165;23;20316;-86
2022/04/14 18:06:45;;;;;;;;;;;;;;;4.40;94.50;100021.06;6210168;23;20162;-86
2022/04/14 18:09:11;;;;;;;;;;;;;;;4.36;94.52;100023.72;6242518;23;19916;-85
2022/04/14 18:11:37;;;;;;;;;;;;;;;4.37;94.51;100032.44;6242115;23;20250;-89
2022/04/14 18:14:02;;;;;;;;;;;;;;;4.34;94.53;100038.63;6215313;23;19916;-89
2022/04/14 18:16:27;;;;;;;;;;;;;;;4.36;94.51;100030.75;6243533;23;19915;-84